KGTR

Golden Triangle Regional Airport

Columbus/W Point/Starkville, Mississippi, USA
METAR KGTR 231556Z 17008KT 10SM SCT015 22/17 A3034 RMK AO2 SLP274 T02170172
Observed Flight Rules
Feb-23 @ 15:56 UTC (44 minutes ago) Visual Flight Rules
Wind Visibility Clouds
170° at 8 knots 10 miles
  • Scattered at 1,500' AGL
Temperatures Readings
Current 22°C / 72°F
Dewpoint 17°C / 63°F
Humidity 73%
Altimeter 30.34" Hg
Pressure 1027.4 hPa
Elevation 80
METAR KGTR 231556Z 17008KT 10SM SCT015 22/17 A3034 RMK AO2 SLP274 T02170172
Observed Flight Rules
Feb-23 @ 15:56 UTC
(44 minutes ago)
VFR
Wind Visibility
170° at 8 knots 10 miles
Clouds
  • Scattered at 1,500' AGL
Temperature Dewpoint
22°C / 72°F 17°C / 63°F
Humidity Altimeter Pressure
73% 30.34" Hg 1027.4 hPa